Time;durP1;ratioP1;P1;durP2;ratioP2;P2;SDS_P1;SDS_P2;PMS_P1;PMS_P2;Temp;Humidity;BMP_temperature;BMP_pressure;BME280_temperature;BME280_humidity;BME280_pressure;Samples;Min_cycle;Max_cycle;Signal;HPM_P1;HPM_P2
2022/10/25 00:00:35;;;;;;;;;3.00;2.00;;;;;22.09;52.91;100731.81;5059362;28;48895;-42
2022/10/25 00:03:00;;;;;;;;;1.75;1.75;;;;;22.08;52.79;100727.44;5057338;28;45489;-43
2022/10/25 00:05:25;;;;;;;;;2.00;2.00;;;;;22.08;52.87;100732.75;5076040;27;45554;-44
2022/10/25 00:07:51;;;;;;;;;3.25;1.50;;;;;22.08;53.35;100741.59;5071261;28;61749;-43
2022/10/25 00:10:16;;;;;;;;;1.00;1.00;;;;;22.08;53.20;100743.38;5075221;28;45389;-43
2022/10/25 00:12:42;;;;;;;;;1.25;1.25;;;;;22.08;52.92;100743.38;5071698;28;69537;-41
2022/10/25 00:15:08;;;;;;;;;3.25;2.00;;;;;22.08;53.20;100740.72;5074420;28;45405;-41
2022/10/25 00:17:34;;;;;;;;;1.75;1.00;;;;;22.08;53.24;100743.38;5060203;28;45359;-43
2022/10/25 00:19:59;;;;;;;;;3.00;2.00;;;;;22.08;52.70;100738.06;5073352;27;72504;-42
2022/10/25 00:22:27;;;;;;;;;2.00;2.00;;;;;22.08;53.25;100732.75;5076915;27;66536;-41
2022/10/25 00:24:53;;;;;;;;;3.00;3.00;;;;;22.08;52.79;100735.41;5076069;28;45375;-42
2022/10/25 00:27:18;;;;;;;;;4.00;2.00;;;;;22.08;52.75;100741.59;5074872;28;52942;-41
2022/10/25 00:29:43;;;;;;;;;4.00;2.00;;;;;22.08;52.93;100740.72;5077385;28;46620;-43
2022/10/25 00:32:09;;;;;;;;;3.50;2.00;;;;;22.08;53.29;100730.97;5059729;28;63667;-42
2022/10/25 00:34:34;;;;;;;;;2.75;1.75;;;;;22.08;53.20;100730.09;5077018;28;70788;-43
2022/10/25 00:36:59;;;;;;;;;2.00;2.00;;;;;22.06;53.11;100732.75;5060676;28;45582;-45
2022/10/25 00:39:25;;;;;;;;;3.50;3.50;;;;;22.07;52.84;100733.66;5073181;28;66540;-44
2022/10/25 00:41:50;;;;;;;;;2.00;2.00;;;;;22.07;52.71;100738.97;5077589;28;45451;-43
2022/10/25 00:44:34;;;;;;;;;2.50;2.25;;;;;22.06;53.00;100735.41;5076414;28;53112;-44
2022/10/25 00:47:00;;;;;;;;;2.25;2.25;;;;;22.06;52.93;100735.41;5074039;28;45468;-46
2022/10/25 00:49:26;;;;;;;;;3.50;3.50;;;;;22.05;53.29;100735.47;5076467;28;46175;-44
2022/10/25 00:51:54;;;;;;;;;3.00;2.00;;;;;22.06;52.87;100745.19;5057032;28;67155;-43
2022/10/25 00:54:22;;;;;;;;;4.00;3.00;;;;;22.06;52.75;100748.69;5075441;28;45169;-44
2022/10/25 00:56:47;;;;;;;;;3.00;2.00;;;;;22.05;53.24;100751.44;5077373;27;45621;-42
2022/10/25 00:59:16;;;;;;;;;4.00;2.00;;;;;22.04;53.38;100750.56;5061449;28;48345;-41
2022/10/25 01:01:41;;;;;;;;;3.00;2.25;;;;;22.03;52.76;100746.19;5059995;28;45509;-44
2022/10/25 01:04:08;;;;;;;;;2.75;2.25;;;;;22.04;52.92;100747.03;5062058;28;45497;-42
2022/10/25 01:06:37;;;;;;;;;3.00;3.00;;;;;22.04;53.18;100753.22;5059251;28;45686;-43
2022/10/25 01:09:03;;;;;;;;;2.50;2.50;;;;;22.04;53.26;100755.88;5076789;28;46269;-44
2022/10/25 01:11:28;;;;;;;;;5.25;3.25;;;;;22.03;53.19;100751.50;5072235;28;59538;-43
2022/10/25 01:13:54;;;;;;;;;3.75;3.00;;;;;22.04;52.64;100753.22;5074600;28;45401;-45
2022/10/25 01:16:54;;;;;;;;;3.25;2.50;;;;;22.04;53.18;100747.03;5060226;28;45462;-44
2022/10/25 01:19:22;;;;;;;;;5.75;2.00;;;;;22.04;53.11;100744.38;5075261;28;45420;-44
2022/10/25 01:21:50;;;;;;;;;3.00;3.00;;;;;22.03;53.22;100746.19;5076549;28;46491;-47
2022/10/25 01:24:34;;;;;;;;;3.75;2.25;;;;;22.03;53.32;100748.84;5078785;28;45489;-42
2022/10/25 01:27:18;;;;;;;;;4.50;2.50;;;;;22.02;52.85;100744.44;5072511;28;45683;-43
2022/10/25 01:30:02;;;;;;;;;2.00;2.00;;;;;22.01;53.00;100750.69;5078529;27;45401;-42
2022/10/25 01:32:36;;;;;;;;;2.00;2.00;;;;;22.01;53.11;100754.22;5077918;27;45330;-42
2022/10/25 01:35:02;;;;;;;;;3.00;3.00;;;;;22.00;53.14;100741.00;5076421;28;45226;-44
2022/10/25 01:37:45;;;;;;;;;3.75;2.00;;;;;21.99;53.13;100753.41;5077329;27;46230;-45
2022/10/25 01:40:27;;;;;;;;;3.00;2.00;;;;;21.99;52.80;100744.56;5078633;27;46510;-42
2022/10/25 01:43:07;;;;;;;;;4.00;3.00;;;;;22.00;52.87;100748.97;5072986;28;45419;-45
2022/10/25 01:46:06;;;;;;;;;4.75;3.00;;;;;21.98;52.68;100741.06;5076875;28;45712;-43
2022/10/25 01:48:34;;;;;;;;;3.75;2.25;;;;;21.97;53.11;100749.91;5073241;28;45533;-43
2022/10/25 01:51:04;;;;;;;;;2.25;1.75;;;;;21.96;53.18;100740.22;5059433;28;45481;-44
2022/10/25 01:53:30;;;;;;;;;3.00;2.50;;;;;21.96;52.79;100745.53;5060789;28;45730;-44
2022/10/25 01:55:57;;;;;;;;;3.00;3.00;;;;;21.97;53.22;100744.59;5072731;28;45481;-43
2022/10/25 01:58:41;;;;;;;;;3.50;2.00;;;;;21.97;52.73;100741.94;5078605;28;45464;-43
2022/10/25 02:01:09;;;;;;;;;2.00;2.00;;;;;21.96;53.19;100745.53;5075221;28;45501;-45
2022/10/25 02:03:48;;;;;;;;;2.00;2.00;;;;;21.96;52.85;100752.63;5076154;27;45475;-43
2022/10/25 02:06:24;;;;;;;;;3.50;2.00;;;;;21.96;53.22;100740.22;5075733;28;45477;-44
2022/10/25 02:08:57;;;;;;;;;2.75;2.25;;;;;21.96;53.27;100744.66;5060717;28;46574;-42
2022/10/25 02:11:23;;;;;;;;;2.50;1.00;;;;;21.97;52.89;100746.41;5058076;28;48471;-42
2022/10/25 02:14:10;;;;;;;;;4.00;1.75;;;;;21.95;53.07;100743.81;5077535;28;45388;-43
2022/10/25 02:16:55;;;;;;;;;1.50;1.50;;;;;21.95;53.30;100741.16;5074859;28;45446;-44
2022/10/25 02:19:38;;;;;;;;;2.00;1.50;;;;;21.95;53.25;100746.47;5061573;28;45591;-42
2022/10/25 02:22:03;;;;;;;;;5.25;2.25;;;;;21.96;53.33;100752.63;5072735;28;54105;-45
2022/10/25 02:24:29;;;;;;;;;0.00;0.00;;;;;21.95;53.22;100754.44;5075859;28;45573;-41
2022/10/25 02:26:55;;;;;;;;;1.00;1.00;;;;;21.96;52.71;100747.31;5072536;28;46370;-47
2022/10/25 02:29:20;;;;;;;;;5.75;3.00;;;;;21.94;52.95;100752.69;5059103;28;45617;-45
2022/10/25 02:31:45;;;;;;;;;2.00;1.75;;;;;21.93;52.80;100755.44;5058497;28;46938;-44
2022/10/25 02:34:11;;;;;;;;;2.00;2.00;;;;;21.93;53.23;100756.28;5072145;28;72233;-43
2022/10/25 02:36:36;;;;;;;;;3.75;2.00;;;;;21.94;52.80;100754.50;5075552;28;45431;-44
2022/10/25 02:39:02;;;;;;;;;2.25;2.25;;;;;21.94;53.27;100760.69;5075456;28;51053;-44
2022/10/25 02:41:27;;;;;;;;;2.25;2.00;;;;;21.94;53.34;100767.78;5072861;28;51776;-46
2022/10/25 02:43:53;;;;;;;;;2.00;2.00;;;;;21.92;52.84;100762.53;5074794;28;67688;-41
2022/10/25 02:46:19;;;;;;;;;3.75;3.00;;;;;21.92;52.96;100769.63;5071831;28;48503;-43
2022/10/25 02:48:45;;;;;;;;;1.75;1.75;;;;;21.91;53.19;100773.22;5075939;28;45566;-42
2022/10/25 02:51:10;;;;;;;;;5.00;3.50;;;;;21.90;53.31;100772.34;5073741;28;45992;-43
2022/10/25 02:53:36;;;;;;;;;2.00;2.00;;;;;21.90;53.38;100772.34;5073972;28;45404;-44
2022/10/25 02:56:05;;;;;;;;;6.00;3.00;;;;;21.89;53.09;100765.31;5071650;28;45549;-42
2022/10/25 02:58:32;;;;;;;;;2.00;2.00;;;;;21.89;53.08;100756.44;5077225;27;45493;-46
2022/10/25 03:00:57;;;;;;;;;2.00;2.00;;;;;21.88;53.57;100750.25;5073543;27;46250;-42
2022/10/25 03:03:26;;;;;;;;;3.00;2.00;;;;;21.88;53.10;100755.56;5074357;27;45229;-43
2022/10/25 03:05:51;;;;;;;;;3.00;3.00;;;;;21.86;53.61;100756.56;5075818;28;45367;-43
2022/10/25 03:08:17;;;;;;;;;2.75;2.00;;;;;21.88;53.55;100758.25;5071105;28;68050;-43
2022/10/25 03:10:42;;;;;;;;;4.00;3.00;;;;;21.89;53.10;100753.78;5076475;28;50545;-44
2022/10/25 03:13:07;;;;;;;;;2.00;2.00;;;;;21.90;53.17;100761.72;5073305;28;53573;-43
2022/10/25 03:15:33;;;;;;;;;4.00;2.50;;;;;21.90;53.47;100755.56;5058856;28;65087;-43
2022/10/25 03:17:58;;;;;;;;;2.00;2.00;;;;;21.90;53.54;100767.03;5074187;27;45393;-42
2022/10/25 03:20:24;;;;;;;;;2.50;2.00;;;;;21.89;53.39;100761.75;5075976;28;68533;-41
2022/10/25 03:22:49;;;;;;;;;2.25;2.25;;;;;21.89;53.08;100761.75;5055873;28;63228;-42
2022/10/25 03:25:14;;;;;;;;;3.50;3.00;;;;;21.88;53.66;100760.91;5076821;27;61342;-42
2022/10/25 03:27:40;;;;;;;;;3.00;3.00;;;;;21.88;53.18;100763.56;5055973;28;45469;-41
2022/10/25 03:30:06;;;;;;;;;6.25;5.00;;;;;21.88;53.01;100771.53;5074013;28;71617;-43
2022/10/25 03:32:31;;;;;;;;;3.50;3.00;;;;;21.88;53.61;100770.66;5074866;27;45334;-46
2022/10/25 03:34:56;;;;;;;;;4.00;2.50;;;;;21.87;53.24;100777.75;5073295;28;57903;-45
2022/10/25 03:37:22;;;;;;;;;4.25;3.00;;;;;21.88;53.28;100776.84;5073750;28;51791;-42
2022/10/25 03:39:47;;;;;;;;;2.50;2.50;;;;;21.89;53.23;100777.69;5076865;27;45381;-42
2022/10/25 03:42:13;;;;;;;;;3.50;3.50;;;;;21.88;53.31;100776.84;5072769;27;64735;-43
2022/10/25 03:44:38;;;;;;;;;2.75;2.75;;;;;21.87;53.64;100783.06;5075159;28;53417;-43
2022/10/25 03:47:03;;;;;;;;;2.00;2.00;;;;;21.87;53.31;100788.41;5073932;28;45429;-45
2022/10/25 03:49:29;;;;;;;;;2.00;2.00;;;;;21.87;53.27;100777.75;5074884;28;45436;-44
2022/10/25 03:51:54;;;;;;;;;2.00;1.00;;;;;21.88;53.26;100781.28;5060402;28;45327;-43
2022/10/25 03:54:20;;;;;;;;;1.50;1.50;;;;;21.89;53.63;100785.69;5075815;28;45349;-44
2022/10/25 03:56:45;;;;;;;;;0.00;0.00;;;;;21.88;53.71;100782.16;5076073;28;69957;-47
2022/10/25 03:59:10;;;;;;;;;3.00;3.00;;;;;21.90;53.16;100782.13;5076303;27;63919;-45
2022/10/25 04:01:36;;;;;;;;;3.75;3.00;;;;;21.87;53.23;100783.06;5074283;28;71805;-45
2022/10/25 04:04:01;;;;;;;;;2.00;2.00;;;;;21.88;53.35;100787.47;5077258;28;56694;-43
2022/10/25 04:06:27;;;;;;;;;3.00;3.00;;;;;21.88;53.62;100782.16;5076626;27;68650;-43
2022/10/25 04:08:52;;;;;;;;;2.00;2.00;;;;;21.88;53.23;100781.28;5075962;27;68861;-44
2022/10/25 04:11:17;;;;;;;;;3.00;2.25;;;;;21.87;53.16;100791.06;5077172;27;72625;-45
2022/10/25 04:13:43;;;;;;;;;6.25;2.50;;;;;21.87;53.48;100784.88;5076670;27;47923;-44
2022/10/25 04:16:08;;;;;;;;;2.00;2.00;;;;;21.86;53.56;100791.13;5076998;27;47846;-46
2022/10/25 04:18:34;;;;;;;;;5.25;2.50;;;;;21.87;53.25;100782.22;5075109;28;46381;-44
2022/10/25 04:20:59;;;;;;;;;2.00;2.00;;;;;21.87;53.16;100783.06;5068068;28;69879;-43
2022/10/25 04:23:24;;;;;;;;;4.50;2.00;;;;;21.87;53.38;100791.06;5064120;28;46377;-44
2022/10/25 04:25:50;;;;;;;;;3.50;3.00;;;;;21.88;53.58;100786.59;5062369;28;45615;-42
2022/10/25 04:28:15;;;;;;;;;2.25;2.25;;;;;21.87;53.17;100785.72;5062524;28;45977;-44
2022/10/25 04:30:41;;;;;;;;;2.75;2.75;;;;;21.88;53.38;100794.56;5059671;28;71356;-43
2022/10/25 04:33:06;;;;;;;;;4.50;3.00;;;;;21.87;53.04;100796.38;5063072;28;45835;-41
2022/10/25 04:35:31;;;;;;;;;4.25;3.00;;;;;21.87;53.11;100791.06;5061869;28;75225;-42
2022/10/25 04:37:57;;;;;;;;;3.00;3.00;;;;;21.87;53.62;100792.84;5062027;28;72651;-43
2022/10/25 04:40:22;;;;;;;;;3.00;3.00;;;;;21.86;52.87;100788.47;5062892;28;45410;-43
2022/10/25 04:42:48;;;;;;;;;3.00;3.00;;;;;21.86;53.50;100791.13;5062716;28;45733;-43
2022/10/25 04:45:13;;;;;;;;;4.25;2.75;;;;;21.84;53.25;100777.03;5067372;28;62377;-42
2022/10/25 04:47:39;;;;;;;;;5.00;2.50;;;;;21.84;53.57;100793.84;5054779;28;46621;-46
2022/10/25 04:50:04;;;;;;;;;3.75;2.50;;;;;21.85;53.16;100800.00;5074215;27;58299;-43
2022/10/25 04:52:30;;;;;;;;;3.00;2.00;;;;;21.84;53.19;100799.16;5075800;27;45443;-43
2022/10/25 04:54:56;;;;;;;;;4.75;3.00;;;;;21.84;53.40;100804.47;5076035;27;61871;-42
2022/10/25 04:57:21;;;;;;;;;3.00;3.00;;;;;21.85;53.38;100806.19;5077340;28;46731;-44
2022/10/25 04:59:46;;;;;;;;;4.25;1.00;;;;;21.85;53.35;100794.69;5076087;28;45288;-43
2022/10/25 05:02:13;;;;;;;;;5.00;3.00;;;;;21.85;53.24;100800.88;5078053;27;45642;-44
2022/10/25 05:04:38;;;;;;;;;5.25;3.00;;;;;21.85;53.32;100800.00;5075418;27;45323;-46
2022/10/25 05:07:04;;;;;;;;;2.25;2.25;;;;;21.85;53.53;100800.00;5077716;28;46410;-44
2022/10/25 05:09:29;;;;;;;;;3.25;3.25;;;;;21.85;53.71;100800.88;5045925;28;45582;-45
2022/10/25 05:11:55;;;;;;;;;4.25;3.00;;;;;21.83;52.95;100802.72;5074738;28;57012;-44
2022/10/25 05:14:21;;;;;;;;;3.00;3.00;;;;;21.82;53.48;100800.13;5078975;27;46239;-43
2022/10/25 05:16:47;;;;;;;;;2.00;2.00;;;;;21.81;53.72;100801.06;5077209;28;47676;-45
2022/10/25 05:19:12;;;;;;;;;2.50;2.00;;;;;21.81;53.61;100803.72;5073987;28;45374;-44
2022/10/25 05:21:37;;;;;;;;;3.00;3.00;;;;;21.80;53.38;100808.13;5078403;27;45265;-45
2022/10/25 05:24:03;;;;;;;;;3.00;3.00;;;;;21.79;53.81;100801.09;5064155;28;45317;-42
2022/10/25 05:26:29;;;;;;;;;3.50;2.25;;;;;21.80;53.75;100812.59;5077104;27;47074;-46
2022/10/25 05:28:55;;;;;;;;;4.25;3.75;;;;;21.80;53.48;100802.81;5076692;27;45441;-45
2022/10/25 05:31:25;;;;;;;;;2.75;2.75;;;;;21.78;53.90;100812.63;5071829;28;46352;-44
2022/10/25 05:33:52;;;;;;;;;5.00;3.75;;;;;21.81;53.48;100814.34;5060489;28;45628;-43
2022/10/25 05:36:18;;;;;;;;;5.50;4.00;;;;;21.82;53.81;100813.41;5060425;28;45453;-43
2022/10/25 05:38:43;;;;;;;;;6.00;5.00;;;;;21.81;53.73;100812.56;5074503;28;45495;-42
2022/10/25 05:41:09;;;;;;;;;5.25;5.00;;;;;21.82;54.22;100813.41;5074951;27;50333;-43
2022/10/25 05:43:35;;;;;;;;;3.25;3.00;;;;;21.81;54.17;100811.69;5077911;27;45295;-43
2022/10/25 05:46:13;;;;;;;;;4.00;3.00;;;;;21.80;54.55;100813.44;5074390;28;45982;-43
2022/10/25 05:48:39;;;;;;;;;4.33;4.33;;;;;21.80;54.33;100817.91;5077550;28;45334;-44
2022/10/25 05:51:08;;;;;;;;;6.25;2.75;;;;;21.80;54.45;100812.59;5074894;28;65010;-44
2022/10/25 05:53:33;;;;;;;;;6.25;1.50;;;;;21.80;54.38;100816.09;5077308;27;45381;-42
2022/10/25 05:55:59;;;;;;;;;4.00;3.00;;;;;21.80;54.56;100823.22;5075230;27;45470;-47
2022/10/25 05:58:24;;;;;;;;;5.00;4.00;;;;;21.80;55.03;100818.75;5059236;28;45754;-41
2022/10/25 06:00:50;;;;;;;;;2.00;2.00;;;;;21.80;54.76;100821.41;5058691;28;66283;-43
2022/10/25 06:03:15;;;;;;;;;3.00;3.00;;;;;21.79;54.88;100817.03;5059880;28;69418;-42
2022/10/25 06:05:40;;;;;;;;;6.50;4.00;;;;;21.80;54.97;100825.88;5060169;28;64028;-41
2022/10/25 06:08:06;;;;;;;;;3.50;3.00;;;;;21.79;54.42;100822.34;5072263;28;67827;-42
2022/10/25 06:10:31;;;;;;;;;3.75;3.75;;;;;21.78;54.92;100815.28;5075664;28;45282;-43
2022/10/25 06:12:57;;;;;;;;;3.00;3.00;;;;;21.78;54.51;100820.63;5049750;28;71261;-44
2022/10/25 06:15:22;;;;;;;;;2.75;2.75;;;;;21.76;54.70;100817.16;5060566;28;46070;-41
2022/10/25 06:17:47;;;;;;;;;4.00;3.00;;;;;21.76;54.78;100811.84;5059428;28;71946;-43
2022/10/25 06:20:13;;;;;;;;;4.50;2.50;;;;;21.78;54.68;100812.63;5060158;28;62949;-45
2022/10/25 06:22:38;;;;;;;;;4.50;3.00;;;;;21.76;54.49;100809.19;5050061;28;70301;-43
2022/10/25 06:25:04;;;;;;;;;2.00;2.00;;;;;21.76;54.71;100811.84;5059717;28;68611;-43
2022/10/25 06:27:29;;;;;;;;;3.00;2.75;;;;;21.76;54.92;100817.16;5060546;28;45348;-44
2022/10/25 06:29:54;;;;;;;;;4.00;3.00;;;;;21.76;54.48;100822.47;5077549;28;45645;-43
2022/10/25 06:32:20;;;;;;;;;3.50;2.00;;;;;21.79;54.76;100829.44;5068458;28;67885;-44
2022/10/25 06:34:45;;;;;;;;;3.75;3.75;;;;;21.79;54.88;100824.13;5060036;28;58307;-46
2022/10/25 06:37:11;;;;;;;;;4.00;2.75;;;;;21.77;54.37;100834.81;5060530;28;45338;-43
2022/10/25 06:39:36;;;;;;;;;2.00;2.00;;;;;21.77;55.11;100833.97;5060586;28;45316;-44
2022/10/25 06:42:01;;;;;;;;;3.50;3.25;;;;;21.78;54.41;100835.69;5049640;28;58769;-44
2022/10/25 06:44:27;;;;;;;;;2.25;2.25;;;;;21.78;54.46;100841.88;5059678;28;64507;-41
2022/10/25 06:46:53;;;;;;;;;3.00;3.00;;;;;21.79;54.34;100837.41;5041929;28;53969;-44
2022/10/25 06:49:18;;;;;;;;;3.00;3.00;;;;;21.80;54.68;100841.81;5060247;28;45280;-45
2022/10/25 06:51:43;;;;;;;;;4.25;3.00;;;;;21.77;54.32;100836.63;5059863;28;61210;-46
2022/10/25 06:54:09;;;;;;;;;2.00;2.00;;;;;21.77;54.51;100844.59;5059322;28;71503;-43
2022/10/25 06:56:34;;;;;;;;;2.50;2.50;;;;;21.77;54.20;100841.94;5069361;28;45191;-43
2022/10/25 06:59:00;;;;;;;;;2.00;2.00;;;;;21.77;54.48;100841.94;5075770;27;45235;-41
2022/10/25 07:01:25;;;;;;;;;3.00;2.00;;;;;21.76;54.69;100841.06;5058801;28;45265;-47
2022/10/25 07:03:52;;;;;;;;;5.25;4.00;;;;;21.75;54.61;100847.31;5059783;28;45457;-43
2022/10/25 07:06:28;;;;;;;;;2.25;1.75;;;;;21.76;54.35;100842.84;5060084;28;45311;-45
2022/10/25 07:08:58;;;;;;;;;6.25;2.00;;;;;21.76;54.36;100842.84;5078711;28;45299;-41
2022/10/25 07:11:24;;;;;;;;;3.50;2.00;;;;;21.76;54.14;100846.38;5066650;28;45244;-41
2022/10/25 07:13:49;;;;;;;;;2.50;2.50;;;;;21.79;53.97;100848.03;5079056;28;46305;-42
2022/10/25 07:16:16;;;;;;;;;4.25;4.00;;;;;21.79;54.70;100846.25;5079842;28;48606;-42
2022/10/25 07:18:42;;;;;;;;;5.00;4.75;;;;;21.79;53.98;100853.34;5078620;28;45367;-45
2022/10/25 07:21:11;;;;;;;;;5.00;3.75;;;;;21.78;54.07;100855.16;5062011;28;45248;-43
2022/10/25 07:23:41;;;;;;;;;4.50;3.50;;;;;21.79;54.17;100861.31;5078846;28;45522;-43
2022/10/25 07:26:08;;;;;;;;;4.25;3.00;;;;;21.79;54.04;100859.53;5082066;28;45461;-46
2022/10/25 07:28:33;;;;;;;;;2.50;2.50;;;;;21.79;54.12;100856.88;5083829;28;45317;-43
2022/10/25 07:30:59;;;;;;;;;2.75;2.00;;;;;21.79;53.97;100856.88;5082925;28;63363;-42
2022/10/25 07:33:24;;;;;;;;;4.75;3.00;;;;;21.79;54.40;100853.34;5082863;28;65260;-42
2022/10/25 07:35:50;;;;;;;;;4.00;3.00;;;;;21.80;54.20;100855.09;5083123;28;60133;-42
2022/10/25 07:38:15;;;;;;;;;4.25;0.75;;;;;21.80;54.46;100861.28;5083166;28;56169;-42
2022/10/25 07:40:40;;;;;;;;;5.25;3.50;;;;;21.81;54.12;100867.47;5083020;28;66497;-45
2022/10/25 07:43:06;;;;;;;;;3.00;3.00;;;;;21.81;54.30;100864.81;5081876;28;45805;-43
2022/10/25 07:45:32;;;;;;;;;4.00;2.25;;;;;21.80;53.89;100866.59;5082172;28;45331;-43
2022/10/25 07:47:57;;;;;;;;;3.00;2.00;;;;;21.81;54.27;100857.72;5082610;28;60089;-41
2022/10/25 07:50:22;;;;;;;;;2.25;2.25;;;;;21.81;53.81;100867.47;5082997;28;58504;-42
2022/10/25 07:52:48;;;;;;;;;3.00;3.00;;;;;21.82;53.94;100866.56;5083278;28;46075;-42
2022/10/25 07:55:13;;;;;;;;;3.75;3.50;;;;;21.81;53.73;100873.66;5081366;28;63367;-43
2022/10/25 07:57:39;;;;;;;;;2.00;2.00;;;;;21.81;54.00;100871.00;5065315;28;45251;-42
2022/10/25 08:00:05;;;;;;;;;3.00;3.00;;;;;21.82;54.36;100877.19;5070359;28;45311;-43
2022/10/25 08:02:31;;;;;;;;;4.50;4.25;;;;;21.83;53.92;100881.56;5061108;28;45304;-41
2022/10/25 08:04:56;;;;;;;;;7.00;4.50;;;;;21.82;53.94;100878.06;5074370;28;57912;-46
2022/10/25 08:07:21;;;;;;;;;4.25;3.00;;;;;21.82;53.99;100870.06;5061791;28;57094;-44
2022/10/25 08:09:47;;;;;;;;;5.00;3.25;;;;;21.82;54.13;100878.06;5055815;28;73731;-45
2022/10/25 08:12:12;;;;;;;;;2.00;2.00;;;;;21.82;53.67;100875.41;5062896;28;75543;-42
2022/10/25 08:14:37;;;;;;;;;3.50;3.50;;;;;21.83;54.06;100866.50;5062915;28;45295;-41
2022/10/25 08:17:03;;;;;;;;;3.25;3.25;;;;;21.85;54.17;100869.09;5061878;28;57793;-41
2022/10/25 08:19:28;;;;;;;;;3.25;2.25;;;;;21.85;54.05;100863.78;5062055;28;56879;-44
2022/10/25 08:21:54;;;;;;;;;2.50;2.50;;;;;21.85;53.85;100854.00;5061956;28;61011;-45
2022/10/25 08:24:19;;;;;;;;;3.00;2.75;;;;;21.86;53.89;100854.88;5061355;28;45366;-41
2022/10/25 08:26:44;;;;;;;;;4.00;4.00;;;;;21.87;54.05;100846.84;5060839;28;56280;-44
2022/10/25 08:29:10;;;;;;;;;4.00;3.00;;;;;21.87;53.99;100859.28;5060340;28;69711;-45
2022/10/25 08:31:35;;;;;;;;;4.00;4.00;;;;;21.85;53.96;100862.00;5060964;28;47470;-44
2022/10/25 08:34:01;;;;;;;;;4.00;3.25;;;;;21.84;53.62;100860.25;5061710;28;61705;-47
2022/10/25 08:36:26;;;;;;;;;3.00;2.50;;;;;21.85;53.58;100872.63;5061273;28;60775;-43
2022/10/25 08:38:52;;;;;;;;;5.25;2.75;;;;;21.85;53.54;100862.00;5062304;28;45449;-41
2022/10/25 08:41:17;;;;;;;;;3.75;3.25;;;;;21.86;53.69;100857.53;5044195;28;45900;-43
2022/10/25 08:44:12;;;;;;;;;3.00;3.00;;;;;21.86;53.55;100857.53;5062647;28;45294;-44
2022/10/25 08:46:59;;;;;;;;;5.75;3.00;;;;;21.85;53.78;100861.13;5048893;28;45469;-41
2022/10/25 08:49:27;;;;;;;;;2.50;2.50;;;;;21.84;53.84;100852.28;5056243;28;45668;-42
2022/10/25 08:51:53;;;;;;;;;4.00;3.00;;;;;21.85;53.72;100853.16;5070021;28;47186;-42
2022/10/25 08:54:18;;;;;;;;;4.00;3.75;;;;;21.84;53.69;100852.28;5044228;28;45356;-43
2022/10/25 08:56:43;;;;;;;;;3.00;3.00;;;;;21.86;53.67;100854.88;5073322;28;45414;-42
2022/10/25 08:59:09;;;;;;;;;2.00;2.00;;;;;21.87;53.88;100848.66;5063441;28;65244;-42
2022/10/25 09:01:48;;;;;;;;;3.00;3.00;;;;;21.87;53.68;100857.47;5080595;28;61085;-43
2022/10/25 09:04:14;;;;;;;;;1.75;1.75;;;;;21.88;53.87;100864.53;5065843;28;45256;-45
2022/10/25 09:06:46;;;;;;;;;2.00;2.00;;;;;21.90;53.34;100856.53;5068790;28;45245;-44
2022/10/25 09:09:28;;;;;;;;;2.25;2.25;;;;;21.90;53.44;100861.84;5061443;28;47467;-42
2022/10/25 09:11:57;;;;;;;;;4.75;3.00;;;;;21.92;53.44;100865.31;5048105;28;47266;-45
2022/10/25 09:14:41;;;;;;;;;5.00;2.00;;;;;21.92;53.41;100854.66;5081062;28;45256;-45
2022/10/25 09:17:24;;;;;;;;;2.75;2.75;;;;;21.92;53.21;100850.22;5081951;28;45276;-45
2022/10/25 09:20:06;;;;;;;;;3.50;2.00;;;;;21.91;53.07;100845.84;5064471;28;45312;-46
2022/10/25 09:22:48;;;;;;;;;3.00;2.00;;;;;21.91;53.60;100847.63;5082373;28;45212;-43
2022/10/25 09:25:29;;;;;;;;;4.25;2.75;;;;;21.89;53.54;100838.81;5080861;28;45310;-45
2022/10/25 09:27:59;;;;;;;;;3.00;3.00;;;;;21.90;53.51;100835.28;5080996;28;45333;-43
2022/10/25 09:30:24;;;;;;;;;3.25;1.50;;;;;21.90;53.04;100836.13;5064093;28;45247;-42
2022/10/25 09:32:53;;;;;;;;;2.50;2.50;;;;;21.90;53.06;100849.41;5061629;28;45434;-43
2022/10/25 09:35:25;;;;;;;;;2.00;2.00;;;;;21.89;53.29;100853.00;5069482;28;45439;-44
2022/10/25 09:37:52;;;;;;;;;3.50;2.50;;;;;21.89;53.53;100858.31;5061211;28;45296;-44
2022/10/25 09:40:22;;;;;;;;;2.50;2.00;;;;;21.90;53.57;100849.41;5053531;28;45337;-43
2022/10/25 09:42:50;;;;;;;;;2.00;2.00;;;;;21.91;53.42;100837.88;5063274;28;45650;-42
2022/10/25 09:45:25;;;;;;;;;2.00;2.00;;;;;21.93;52.98;100837.81;5060245;28;45303;-45
2022/10/25 09:47:58;;;;;;;;;3.00;1.25;;;;;21.93;52.91;100835.16;5058987;28;45543;-42
2022/10/25 09:50:36;;;;;;;;;2.25;2.25;;;;;21.92;53.07;100839.59;5061355;28;45235;-42
2022/10/25 09:53:12;;;;;;;;;3.00;2.25;;;;;21.93;52.84;100846.63;5051535;28;51478;-44
2022/10/25 09:55:46;;;;;;;;;3.00;3.00;;;;;21.92;53.43;100850.22;5065822;28;45668;-43
2022/10/25 09:58:22;;;;;;;;;2.00;2.00;;;;;21.93;52.82;100843.13;5070568;28;45209;-43
2022/10/25 10:00:48;;;;;;;;;3.25;2.25;;;;;21.93;52.91;100851.97;5080529;28;45322;-42
2022/10/25 10:03:13;;;;;;;;;2.00;2.00;;;;;21.93;53.47;100843.97;5069407;28;45462;-43
2022/10/25 10:05:41;;;;;;;;;4.00;3.00;;;;;21.93;52.85;100845.78;5059897;28;45394;-42
2022/10/25 10:08:07;;;;;;;;;2.75;2.50;;;;;21.92;53.37;100839.59;5060679;28;45349;-43
2022/10/25 10:10:33;;;;;;;;;1.00;1.00;;;;;21.92;53.30;100833.41;5066244;28;45518;-44
2022/10/25 10:13:03;;;;;;;;;4.00;3.00;;;;;21.91;53.29;100832.53;5034256;28;58825;-42
2022/10/25 10:15:37;;;;;;;;;4.00;3.00;;;;;21.92;53.12;100831.63;5060756;28;45268;-45
2022/10/25 10:18:28;;;;;;;;;2.00;2.00;;;;;21.92;53.10;100831.63;5073052;28;45447;-45
2022/10/25 10:21:20;;;;;;;;;1.50;1.50;;;;;21.95;53.03;100827.97;5042760;28;45384;-42
2022/10/25 10:23:46;;;;;;;;;3.25;2.50;;;;;21.93;52.95;100829.84;5058264;28;46574;-42
2022/10/25 10:26:22;;;;;;;;;1.25;1.25;;;;;21.92;53.17;100833.41;5070201;28;45331;-44
2022/10/25 10:29:00;;;;;;;;;3.00;1.50;;;;;21.91;52.75;100829.88;5061086;28;45331;-43
2022/10/25 10:31:25;;;;;;;;;2.00;2.00;;;;;21.92;52.84;100839.59;5060793;28;45417;-42
2022/10/25 10:33:50;;;;;;;;;4.75;2.00;;;;;21.91;53.43;100837.88;5051763;28;70732;-43
2022/10/25 10:36:24;;;;;;;;;3.00;1.00;;;;;21.92;52.76;100833.41;5079710;28;45249;-45
2022/10/25 10:38:50;;;;;;;;;2.00;1.00;;;;;21.93;52.75;100838.66;5069501;28;45266;-42
2022/10/25 10:41:23;;;;;;;;;1.75;1.00;;;;;21.92;53.07;100831.63;5042330;28;45690;-42
2022/10/25 10:43:48;;;;;;;;;2.75;1.00;;;;;21.92;53.12;100830.75;5060403;28;47059;-41
2022/10/25 10:46:15;;;;;;;;;2.00;2.00;;;;;21.92;52.81;100822.78;5078239;28;45274;-42
2022/10/25 10:48:42;;;;;;;;;1.75;1.75;;;;;21.93;52.81;100828.03;5079516;28;45386;-43
2022/10/25 10:51:08;;;;;;;;;4.00;2.50;;;;;21.94;53.19;100827.13;5061161;28;45414;-45
2022/10/25 10:53:33;;;;;;;;;1.75;1.75;;;;;21.93;52.81;100819.19;5058474;28;68221;-42
2022/10/25 10:56:03;;;;;;;;;4.50;2.00;;;;;21.94;53.38;100808.50;5060110;28;45435;-43
2022/10/25 10:58:52;;;;;;;;;7.00;2.25;;;;;21.94;53.09;100811.16;5052135;28;45188;-42
2022/10/25 11:01:32;;;;;;;;;3.25;2.00;;;;;21.94;53.17;100811.16;5047501;28;67962;-43
2022/10/25 11:03:58;;;;;;;;;3.25;2.25;;;;;21.95;53.31;100809.38;5041839;28;48297;-42
2022/10/25 11:06:34;;;;;;;;;4.00;3.00;;;;;21.95;53.00;100804.94;5060251;28;45227;-41
2022/10/25 11:09:23;;;;;;;;;2.00;2.00;;;;;21.95;52.87;100793.44;5079855;28;45301;-42
2022/10/25 11:12:04;;;;;;;;;2.00;1.75;;;;;21.94;52.93;100792.56;5063178;28;45347;-43
2022/10/25 11:14:30;;;;;;;;;2.75;2.50;;;;;21.94;53.00;100789.91;5058820;28;46256;-41
2022/10/25 11:17:09;;;;;;;;;1.75;1.75;;;;;21.94;53.34;100783.72;5057952;28;60863;-45
2022/10/25 11:19:56;;;;;;;;;2.00;2.00;;;;;21.94;53.28;100795.22;5058893;28;45458;-41
2022/10/25 11:22:40;;;;;;;;;4.25;3.25;;;;;21.94;53.27;100781.06;5069833;28;45315;-44
2022/10/25 11:25:12;;;;;;;;;1.50;1.50;;;;;21.93;53.36;100780.22;5079200;28;46519;-42
2022/10/25 11:28:04;;;;;;;;;2.00;2.00;;;;;21.95;53.32;100782.81;5080155;28;45432;-44
2022/10/25 11:30:53;;;;;;;;;4.50;1.50;;;;;21.95;53.39;100785.47;5080307;28;45263;-42